Time;durP1;ratioP1;P1;durP2;ratioP2;P2;SDS_P1;SDS_P2;PMS_P1;PMS_P2;Temp;Humidity;BMP_temperature;BMP_pressure;BME280_temperature;BME280_humidity;BME280_pressure;Samples;Min_cycle;Max_cycle;Signal;HPM_P1;HPM_P2
2023/02/08 00:02:09;;;;;;;4.70;2.03;;;;;;;;;;10470143;28;20033;-80
2023/02/08 00:07:12;;;;;;;6.82;3.10;;;;;;;;;;10458329;28;20064;-78
2023/02/08 00:12:17;;;;;;;9.00;4.23;;;;;;;;;;10459335;28;20449;-79
2023/02/08 00:17:21;;;;;;;11.57;3.13;;;;;;;;;;10456760;28;20037;-80
2023/02/08 00:22:23;;;;;;;2.28;1.13;;;;;;;;;;10458166;28;20048;-80
2023/02/08 00:27:26;;;;;;;5.17;1.87;;;;;;;;;;10461347;28;20046;-79
2023/02/08 00:32:30;;;;;;;5.43;2.33;;;;;;;;;;10463981;28;20032;-81
2023/02/08 00:37:32;;;;;;;13.18;2.38;;;;;;;;;;10465074;28;21383;-79
2023/02/08 00:42:35;;;;;;;3.83;1.57;;;;;;;;;;10464293;28;20444;-78
2023/02/08 00:47:39;;;;;;;10.73;3.33;;;;;;;;;;10461635;28;20453;-78
2023/02/08 00:52:42;;;;;;;;;;;;;;;;;;10456160;28;20445;-77
2023/02/08 00:57:44;;;;;;;2.37;0.90;;;;;;;;;;10461293;28;19929;-77
2023/02/08 01:02:48;;;;;;;6.37;2.53;;;;;;;;;;10452061;28;20057;-76
2023/02/08 01:07:51;;;;;;;7.77;3.00;;;;;;;;;;10465547;28;20041;-77
2023/02/08 01:12:54;;;;;;;8.63;3.50;;;;;;;;;;10455065;28;20044;-78
2023/02/08 01:17:58;;;;;;;11.97;2.67;;;;;;;;;;10465776;28;20041;-77
2023/02/08 01:23:01;;;;;;;4.03;2.63;;;;;;;;;;10460440;28;20402;-77
2023/02/08 01:28:03;;;;;;;5.07;1.87;;;;;;;;;;10458685;28;20123;-79
2023/02/08 01:33:07;;;;;;;9.23;2.47;;;;;;;;;;10464656;28;20090;-80
2023/02/08 01:38:10;;;;;;;1.55;0.82;;;;;;;;;;10475304;28;20040;-79
2023/02/08 01:43:19;;;;;;;5.67;2.60;;;;;;;;;;10466686;28;20044;-78
2023/02/08 01:48:25;;;;;;;8.70;3.20;;;;;;;;;;10462331;28;20036;-78
2023/02/08 01:53:29;;;;;;;11.17;2.87;;;;;;;;;;10468283;28;20055;-80
2023/02/08 01:58:36;;;;;;;8.07;2.50;;;;;;;;;;10456493;28;20041;-79
2023/02/08 02:03:40;;;;;;;7.53;2.90;;;;;;;;;;10452127;28;20044;-78
2023/02/08 02:08:43;;;;;;;;;;;;;;;;;;10463164;28;20041;-80
2023/02/08 02:13:46;;;;;;;18.63;5.00;;;;;;;;;;10472056;28;19921;-78
2023/02/08 02:18:50;;;;;;;10.27;3.30;;;;;;;;;;10453154;28;20033;-78
2023/02/08 02:24:02;;;;;;;4.60;1.77;;;;;;;;;;10454117;28;20318;-80
2023/02/08 02:29:19;;;;;;;9.03;2.90;;;;;;;;;;10454262;28;20430;-78
2023/02/08 02:34:26;;;;;;;9.43;3.77;;;;;;;;;;10471418;28;20365;-79
2023/02/08 02:39:34;;;;;;;8.10;2.90;;;;;;;;;;10459346;28;20417;-79
2023/02/08 02:44:40;;;;;;;5.70;2.43;;;;;;;;;;10472347;28;20056;-79
2023/02/08 02:49:48;;;;;;;13.57;4.33;;;;;;;;;;10463465;28;20098;-79
2023/02/08 02:54:53;;;;;;;8.10;2.93;;;;;;;;;;10460676;28;20056;-80
2023/02/08 02:59:56;;;;;;;0.83;0.83;;;;;;;;;;10463589;28;20116;-80
2023/02/08 03:05:00;;;;;;;1.98;1.38;;;;;;;;;;10474801;28;20047;-79
2023/02/08 03:10:09;;;;;;;6.75;2.20;;;;;;;;;;10464520;28;20048;-78
2023/02/08 03:15:16;;;;;;;7.30;3.10;;;;;;;;;;10467895;28;20131;-79
2023/02/08 03:20:23;;;;;;;5.23;1.90;;;;;;;;;;10459871;28;20052;-79
2023/02/08 03:25:29;;;;;;;4.53;1.20;;;;;;;;;;10457730;28;20101;-78
2023/02/08 03:30:36;;;;;;;10.73;2.47;;;;;;;;;;10465947;28;20128;-80
2023/02/08 03:35:43;;;;;;;1.17;1.07;;;;;;;;;;10466700;28;20068;-79
2023/02/08 03:40:47;;;;;;;5.57;2.20;;;;;;;;;;10462739;28;20522;-77
2023/02/08 03:45:50;;;;;;;11.48;2.17;;;;;;;;;;10462476;28;20435;-78
2023/02/08 03:50:56;;;;;;;2.67;0.90;;;;;;;;;;10445062;28;20040;-79
2023/02/08 03:56:02;;;;;;;6.77;3.13;;;;;;;;;;10456654;28;20382;-79
2023/02/08 04:01:06;;;;;;;6.87;4.33;;;;;;;;;;10460769;28;20183;-79
2023/02/08 04:06:10;;;;;;;7.97;3.83;;;;;;;;;;10455785;28;20518;-79
2023/02/08 04:11:12;;;;;;;4.60;2.35;;;;;;;;;;10457322;28;20390;-80
2023/02/08 04:16:15;;;;;;;2.27;1.23;;;;;;;;;;10476425;28;20113;-80
2023/02/08 04:21:19;;;;;;;1.20;1.10;;;;;;;;;;10465810;28;20095;-76
2023/02/08 04:26:22;;;;;;;6.35;2.47;;;;;;;;;;10464858;28;20048;-77
2023/02/08 04:31:25;;;;;;;5.33;2.53;;;;;;;;;;10475659;28;20052;-78
2023/02/08 04:36:29;;;;;;;7.47;3.50;;;;;;;;;;10481926;28;20064;-80
2023/02/08 04:41:34;;;;;;;5.47;2.73;;;;;;;;;;10473724;28;20537;-80
2023/02/08 04:46:37;;;;;;;3.80;1.80;;;;;;;;;;10455882;28;20140;-78
2023/02/08 04:51:41;;;;;;;4.43;1.13;;;;;;;;;;10470449;28;20090;-78
2023/02/08 04:56:43;;;;;;;9.55;3.53;;;;;;;;;;10465786;28;20040;-79
2023/02/08 05:01:46;;;;;;;5.00;2.40;;;;;;;;;;10460058;28;20040;-79
2023/02/08 05:06:50;;;;;;;1.83;1.43;;;;;;;;;;10462446;28;20079;-81
2023/02/08 05:11:53;;;;;;;7.78;2.60;;;;;;;;;;10461171;28;20060;-80
2023/02/08 05:16:55;;;;;;;8.03;2.77;;;;;;;;;;10460247;28;20140;-80
2023/02/08 05:21:59;;;;;;;8.00;1.50;;;;;;;;;;10449683;28;20045;-77
2023/02/08 05:27:02;;;;;;;10.20;4.93;;;;;;;;;;10462100;28;20049;-81
2023/02/08 05:32:05;;;;;;;7.77;2.13;;;;;;;;;;10460937;28;20033;-78
2023/02/08 05:37:09;;;;;;;9.70;1.30;;;;;;;;;;10463198;28;20037;-80
2023/02/08 05:42:12;;;;;;;;;;;;;;;;;;10467900;28;20047;-79
2023/02/08 05:47:14;;;;;;;4.53;1.73;;;;;;;;;;10458380;28;19947;-79
2023/02/08 05:52:18;;;;;;;2.60;1.53;;;;;;;;;;10460126;28;20275;-78
2023/02/08 05:57:21;;;;;;;4.03;1.75;;;;;;;;;;10475482;28;20446;-78
2023/02/08 06:02:24;;;;;;;3.80;1.67;;;;;;;;;;10459936;28;20105;-78
2023/02/08 06:07:28;;;;;;;1.17;1.07;;;;;;;;;;10445051;28;20120;-80
2023/02/08 06:12:31;;;;;;;4.07;2.07;;;;;;;;;;10464207;28;20522;-78
2023/02/08 06:17:33;;;;;;;6.60;3.13;;;;;;;;;;10456723;28;20045;-77
2023/02/08 06:22:41;;;;;;;4.07;2.13;;;;;;;;;;10450113;28;20068;-78
2023/02/08 06:27:43;;;;;;;4.47;2.47;;;;;;;;;;10460920;28;20071;-80
2023/02/08 06:32:46;;;;;;;7.93;1.73;;;;;;;;;;10471546;28;20466;-78
2023/02/08 06:37:50;;;;;;;5.50;2.50;;;;;;;;;;10465539;28;20063;-79
2023/02/08 06:42:53;;;;;;;12.40;3.95;;;;;;;;;;10465508;28;20041;-80
2023/02/08 06:47:56;;;;;;;10.43;4.07;;;;;;;;;;10467454;28;20380;-79
2023/02/08 06:53:00;;;;;;;10.03;4.50;;;;;;;;;;10473436;28;20037;-78
2023/02/08 06:58:23;;;;;;;16.52;4.65;;;;;;;;;;10466817;28;20056;-79
2023/02/08 07:03:45;;;;;;;11.80;4.90;;;;;;;;;;10464657;28;20080;-80
2023/02/08 07:09:10;;;;;;;11.90;4.50;;;;;;;;;;10465893;28;20057;-79
2023/02/08 07:14:32;;;;;;;11.07;4.88;;;;;;;;;;10469745;28;20052;-78
2023/02/08 07:19:57;;;;;;;19.17;6.93;;;;;;;;;;10483035;28;20049;-81
2023/02/08 07:25:22;;;;;;;17.33;5.83;;;;;;;;;;10485630;28;20045;-79
2023/02/08 07:30:44;;;;;;;33.80;10.07;;;;;;;;;;10465648;28;20040;-79
2023/02/08 07:36:07;;;;;;;20.50;8.13;;;;;;;;;;10473153;28;20376;-79
2023/02/08 07:41:35;;;;;;;25.50;8.60;;;;;;;;;;10472369;28;20051;-79
2023/02/08 07:47:00;;;;;;;25.58;8.93;;;;;;;;;;10458066;28;20056;-80
2023/02/08 07:52:31;;;;;;;16.08;7.25;;;;;;;;;;10454715;28;20034;-81
2023/02/08 07:58:04;;;;;;;27.67;10.27;;;;;;;;;;10474773;28;20049;-80
2023/02/08 08:03:29;;;;;;;16.65;7.40;;;;;;;;;;10465315;28;20048;-80
2023/02/08 08:08:35;;;;;;;23.20;11.52;;;;;;;;;;10472354;28;20475;-80
2023/02/08 08:14:02;;;;;;;14.43;5.25;;;;;;;;;;10458387;28;20075;-80
2023/02/08 08:19:14;;;;;;;15.32;6.85;;;;;;;;;;10466089;28;20055;-81
2023/02/08 08:24:18;;;;;;;21.73;8.35;;;;;;;;;;10459061;28;20471;-80
2023/02/08 08:29:27;;;;;;;22.58;9.52;;;;;;;;;;10469931;28;20059;-80
2023/02/08 08:35:06;;;;;;;22.88;8.82;;;;;;;;;;10470917;28;20076;-80
2023/02/08 08:45:42;;;;;;;16.83;7.75;;;;;;;;;;10465270;28;20049;-82
2023/02/08 08:51:02;;;;;;;20.90;9.93;;;;;;;;;;10464230;28;20421;-80
2023/02/08 08:56:33;;;;;;;15.20;7.25;;;;;;;;;;10468468;28;20037;-80
2023/02/08 09:01:46;;;;;;;13.68;5.95;;;;;;;;;;10467957;28;20036;-81
2023/02/08 09:06:58;;;;;;;16.00;7.47;;;;;;;;;;10451002;28;20049;-80
2023/02/08 09:12:11;;;;;;;13.05;6.55;;;;;;;;;;10470197;28;20064;-79
2023/02/08 09:17:19;;;;;;;15.07;6.50;;;;;;;;;;10470007;28;20188;-80
2023/02/08 09:22:25;;;;;;;23.98;9.93;;;;;;;;;;10451499;28;20529;-80
2023/02/08 09:27:31;;;;;;;27.20;10.38;;;;;;;;;;10463739;28;20522;-80
2023/02/08 09:32:40;;;;;;;19.88;10.25;;;;;;;;;;10441478;28;20048;-81
2023/02/08 09:37:57;;;;;;;21.17;10.73;;;;;;;;;;10465988;28;20151;-81
2023/02/08 09:48:49;;;;;;;21.45;9.55;;;;;;;;;;10469158;28;20037;-82
2023/02/08 09:53:58;;;;;;;24.77;10.68;;;;;;;;;;10475068;28;20056;-82
2023/02/08 09:59:20;;;;;;;21.27;10.35;;;;;;;;;;10486344;28;20040;-81
2023/02/08 10:04:40;;;;;;;16.55;10.38;;;;;;;;;;10488119;28;20045;-82
2023/02/08 10:09:50;;;;;;;18.92;9.15;;;;;;;;;;10463283;28;20044;-83
2023/02/08 10:15:04;;;;;;;17.90;9.63;;;;;;;;;;10459471;28;20048;-81
2023/02/08 10:20:16;;;;;;;25.38;12.07;;;;;;;;;;10465200;28;20045;-82
2023/02/08 10:25:43;;;;;;;20.63;10.40;;;;;;;;;;10454068;28;20049;-82
2023/02/08 10:31:02;;;;;;;21.55;11.00;;;;;;;;;;10466192;28;20057;-83
2023/02/08 10:36:17;;;;;;;19.98;10.23;;;;;;;;;;10464203;28;20102;-82
2023/02/08 10:41:26;;;;;;;21.45;11.52;;;;;;;;;;10455137;28;20041;-81
2023/02/08 10:52:07;;;;;;;19.08;8.23;;;;;;;;;;10508828;27;20913;-81
2023/02/08 10:57:13;;;;;;;21.13;10.02;;;;;;;;;;10478460;28;20037;-81
2023/02/08 11:02:20;;;;;;;16.42;8.30;;;;;;;;;;10469741;28;20514;-81
2023/02/08 11:07:24;;;;;;;18.85;10.10;;;;;;;;;;10481042;28;20036;-82
2023/02/08 11:12:27;;;;;;;22.52;9.95;;;;;;;;;;10492065;28;20132;-82
2023/02/08 11:17:31;;;;;;;20.83;10.63;;;;;;;;;;10491221;28;20037;-79
2023/02/08 11:22:35;;;;;;;22.27;11.57;;;;;;;;;;10489027;28;20450;-82
2023/02/08 11:27:42;;;;;;;23.92;11.50;;;;;;;;;;10490712;28;20076;-81
2023/02/08 11:32:45;;;;;;;21.52;11.23;;;;;;;;;;10484878;28;20055;-82
2023/02/08 11:37:50;;;;;;;18.88;11.25;;;;;;;;;;10486378;28;20036;-81
2023/02/08 11:42:53;;;;;;;21.85;12.10;;;;;;;;;;10494946;28;20041;-81
2023/02/08 11:47:55;;;;;;;20.42;11.38;;;;;;;;;;10483990;28;20037;-81
2023/02/08 11:53:01;;;;;;;22.42;11.32;;;;;;;;;;10483409;28;20079;-81
2023/02/08 11:58:05;;;;;;;20.25;10.88;;;;;;;;;;10480636;28;20037;-82
2023/02/08 12:03:12;;;;;;;22.35;11.95;;;;;;;;;;10470308;28;20049;-81
2023/02/08 12:08:21;;;;;;;21.63;11.73;;;;;;;;;;10497331;28;20088;-83
2023/02/08 12:13:37;;;;;;;21.10;11.38;;;;;;;;;;10481615;28;20049;-81
2023/02/08 12:18:51;;;;;;;25.23;13.10;;;;;;;;;;10447087;28;20455;-82
2023/02/08 12:23:57;;;;;;;21.45;11.63;;;;;;;;;;10432765;28;20044;-82
2023/02/08 12:29:16;;;;;;;24.10;12.60;;;;;;;;;;10444209;28;20036;-81
2023/02/08 12:34:22;;;;;;;22.63;12.20;;;;;;;;;;10446720;28;20033;-81
2023/02/08 12:45:06;;;;;;;24.60;12.65;;;;;;;;;;10437235;28;20163;-83
2023/02/08 12:50:14;;;;;;;22.17;10.75;;;;;;;;;;10454252;28;20053;-81
2023/02/08 12:55:21;;;;;;;22.10;11.38;;;;;;;;;;10456068;28;20098;-81
2023/02/08 13:00:25;;;;;;;26.20;13.32;;;;;;;;;;10453648;28;20033;-80
2023/02/08 13:05:31;;;;;;;23.15;11.65;;;;;;;;;;10457112;28;20155;-81
2023/02/08 13:10:38;;;;;;;19.70;9.65;;;;;;;;;;10462991;28;20045;-81
2023/02/08 13:15:42;;;;;;;21.67;10.40;;;;;;;;;;10459420;28;20045;-81
2023/02/08 13:20:46;;;;;;;20.65;10.07;;;;;;;;;;10462579;28;20040;-80
2023/02/08 13:25:49;;;;;;;;;;;;;;;;;;10485623;28;20065;-81
2023/02/08 13:30:55;;;;;;;20.17;9.68;;;;;;;;;;10473770;28;19928;-82
2023/02/08 13:35:58;;;;;;;20.10;9.38;;;;;;;;;;10485692;28;20045;-81
2023/02/08 13:41:03;;;;;;;20.40;9.77;;;;;;;;;;10487666;28;20040;-81
2023/02/08 13:46:07;;;;;;;21.08;9.82;;;;;;;;;;10462579;28;20327;-81
2023/02/08 13:51:25;;;;;;;20.80;9.13;;;;;;;;;;10466016;28;20072;-82
2023/02/08 13:56:39;;;;;;;19.77;7.75;;;;;;;;;;10449697;28;20127;-81
2023/02/08 14:02:03;;;;;;;15.23;7.57;;;;;;;;;;10456245;28;20053;-81
2023/02/08 14:07:13;;;;;;;13.85;6.28;;;;;;;;;;10454434;28;20051;-82
2023/02/08 14:12:21;;;;;;;17.77;7.72;;;;;;;;;;10454886;28;20045;-81
2023/02/08 14:17:28;;;;;;;20.00;8.55;;;;;;;;;;10445633;28;20051;-81
2023/02/08 14:22:41;;;;;;;15.10;6.28;;;;;;;;;;10458138;28;20105;-81
2023/02/08 14:27:49;;;;;;;17.55;5.93;;;;;;;;;;10447593;28;20208;-80
2023/02/08 14:33:07;;;;;;;16.48;5.63;;;;;;;;;;10450487;28;20049;-80
2023/02/08 14:38:29;;;;;;;15.43;5.85;;;;;;;;;;10461818;28;20040;-80
2023/02/08 14:43:35;;;;;;;13.45;5.45;;;;;;;;;;10463332;28;20041;-82
2023/02/08 14:48:43;;;;;;;15.35;5.90;;;;;;;;;;10460719;28;20048;-80
2023/02/08 14:53:48;;;;;;;14.07;5.90;;;;;;;;;;10454729;28;20048;-80
2023/02/08 14:58:52;;;;;;;14.85;5.13;;;;;;;;;;10464451;28;20413;-81
2023/02/08 15:03:57;;;;;;;8.80;3.63;;;;;;;;;;10461564;28;20092;-80
2023/02/08 15:09:04;;;;;;;12.80;5.07;;;;;;;;;;10463194;28;20072;-80
2023/02/08 15:14:17;;;;;;;11.70;4.85;;;;;;;;;;10457498;28;20136;-81
2023/02/08 15:19:27;;;;;;;13.65;4.78;;;;;;;;;;10458266;28;20099;-81
2023/02/08 15:24:30;;;;;;;12.73;3.97;;;;;;;;;;10457251;28;20494;-80
2023/02/08 15:29:40;;;;;;;8.37;3.97;;;;;;;;;;10465274;28;20146;-81
2023/02/08 15:34:50;;;;;;;10.33;3.77;;;;;;;;;;10440666;28;20045;-81
2023/02/08 15:39:54;;;;;;;9.57;3.30;;;;;;;;;;10451049;28;20138;-81
2023/02/08 15:44:58;;;;;;;7.80;3.20;;;;;;;;;;10456680;28;20506;-81
2023/02/08 15:50:02;;;;;;;6.00;2.55;;;;;;;;;;10450656;28;20066;-80
2023/02/08 15:55:06;;;;;;;9.43;3.73;;;;;;;;;;10457462;28;20060;-81
2023/02/08 16:00:13;;;;;;;10.00;4.43;;;;;;;;;;10446917;28;20045;-81
2023/02/08 16:05:20;;;;;;;14.33;4.07;;;;;;;;;;10459208;28;20103;-79
2023/02/08 16:10:29;;;;;;;17.67;4.33;;;;;;;;;;10458392;28;20096;-81
2023/02/08 16:15:39;;;;;;;8.60;2.70;;;;;;;;;;10454864;28;20041;-81
2023/02/08 16:20:44;;;;;;;16.37;5.50;;;;;;;;;;10456149;28;20498;-80
2023/02/08 16:25:48;;;;;;;10.10;2.83;;;;;;;;;;10446753;28;20041;-80
2023/02/08 16:30:52;;;;;;;7.00;2.83;;;;;;;;;;10452467;28;20594;-81
2023/02/08 16:36:00;;;;;;;9.27;3.67;;;;;;;;;;10449081;28;20113;-81
2023/02/08 16:41:11;;;;;;;6.43;2.50;;;;;;;;;;10452298;28;20114;-81
2023/02/08 16:46:20;;;;;;;9.23;2.97;;;;;;;;;;10445558;28;20402;-81
2023/02/08 16:51:25;;;;;;;10.10;3.23;;;;;;;;;;10446284;28;20041;-80
2023/02/08 16:56:29;;;;;;;12.47;4.20;;;;;;;;;;10440692;28;20048;-80
2023/02/08 17:01:32;;;;;;;6.67;3.27;;;;;;;;;;10445154;28;20580;-80
2023/02/08 17:06:36;;;;;;;11.07;3.13;;;;;;;;;;10443988;28;20415;-81
2023/02/08 17:11:40;;;;;;;6.50;3.73;;;;;;;;;;10440905;28;20533;-80
2023/02/08 17:16:42;;;;;;;9.47;3.73;;;;;;;;;;10442307;28;20537;-80
2023/02/08 17:21:47;;;;;;;29.27;5.70;;;;;;;;;;10439433;28;20171;-80
2023/02/08 17:26:49;;;;;;;7.75;2.63;;;;;;;;;;10440370;28;20515;-80
2023/02/08 17:31:52;;;;;;;12.53;4.33;;;;;;;;;;10448244;28;20128;-81
2023/02/08 17:36:56;;;;;;;6.97;2.67;;;;;;;;;;10445487;28;20379;-79
2023/02/08 17:41:59;;;;;;;16.75;5.47;;;;;;;;;;10450878;28;20473;-80
2023/02/08 17:47:01;;;;;;;14.63;4.67;;;;;;;;;;10439904;28;20041;-80
2023/02/08 17:52:05;;;;;;;21.53;6.77;;;;;;;;;;10443574;28;20041;-80
2023/02/08 17:57:10;;;;;;;19.02;5.47;;;;;;;;;;10445118;28;20497;-80
2023/02/08 18:02:12;;;;;;;2.22;1.08;;;;;;;;;;10441338;28;20045;-81
2023/02/08 18:07:16;;;;;;;12.23;3.77;;;;;;;;;;10430397;28;20056;-80
2023/02/08 18:12:19;;;;;;;;;;;;;;;;;;10448317;28;20535;-81
2023/02/08 18:17:22;;;;;;;10.27;4.87;;;;;;;;;;10441024;28;19927;-80
2023/02/08 18:22:26;;;;;;;15.53;5.10;;;;;;;;;;10440315;28;20426;-80
2023/02/08 18:27:29;;;;;;;4.28;2.33;;;;;;;;;;10443168;28;20493;-80
2023/02/08 18:32:31;;;;;;;12.13;3.20;;;;;;;;;;10441272;28;20068;-81
2023/02/08 18:37:36;;;;;;;16.10;3.87;;;;;;;;;;10431207;28;20047;-81
2023/02/08 18:42:38;;;;;;;;;;;;;;;;;;10427903;28;20041;-79
2023/02/08 18:47:41;;;;;;;12.80;4.50;;;;;;;;;;10431580;28;19971;-80
2023/02/08 18:52:45;;;;;;;18.60;5.63;;;;;;;;;;10439687;28;20089;-80
2023/02/08 18:57:47;;;;;;;13.63;4.63;;;;;;;;;;10447348;28;20113;-80
2023/02/08 19:02:50;;;;;;;15.37;3.83;;;;;;;;;;10436894;28;20064;-80
2023/02/08 19:07:54;;;;;;;18.40;5.10;;;;;;;;;;10431753;28;20415;-80
2023/02/08 19:12:57;;;;;;;11.18;4.53;;;;;;;;;;10445102;28;20064;-80
2023/02/08 19:17:59;;;;;;;14.53;4.57;;;;;;;;;;10442877;28;20045;-79
2023/02/08 19:23:04;;;;;;;14.97;4.93;;;;;;;;;;10441414;28;20589;-79
2023/02/08 19:28:07;;;;;;;7.67;3.43;;;;;;;;;;10440702;28;20038;-81
2023/02/08 19:33:10;;;;;;;15.33;4.57;;;;;;;;;;10440690;28;20048;-80
2023/02/08 19:38:14;;;;;;;26.97;6.50;;;;;;;;;;10448904;28;20044;-81
2023/02/08 19:43:16;;;;;;;26.30;8.07;;;;;;;;;;10440208;28;20055;-80
2023/02/08 19:48:20;;;;;;;28.33;9.17;;;;;;;;;;10448224;28;20045;-80
2023/02/08 19:53:25;;;;;;;22.35;7.32;;;;;;;;;;10441281;28;20041;-80
2023/02/08 19:58:28;;;;;;;12.33;3.47;;;;;;;;;;10443120;28;20053;-81
2023/02/08 20:03:31;;;;;;;11.57;5.27;;;;;;;;;;10449693;28;20470;-80
2023/02/08 20:08:35;;;;;;;21.27;5.60;;;;;;;;;;10445466;28;20045;-79
2023/02/08 20:13:38;;;;;;;10.30;3.38;;;;;;;;;;10448918;28;20094;-80
2023/02/08 20:18:40;;;;;;;10.83;4.20;;;;;;;;;;10461197;28;20355;-81
2023/02/08 20:23:45;;;;;;;10.50;3.13;;;;;;;;;;10438503;28;20107;-80
2023/02/08 20:28:49;;;;;;;10.30;3.38;;;;;;;;;;10443511;28;20167;-80
2023/02/08 20:33:51;;;;;;;;;;;;;;;;;;10451074;28;20094;-80
2023/02/08 20:38:56;;;;;;;4.77;2.13;;;;;;;;;;10458555;28;19928;-80
2023/02/08 20:44:00;;;;;;;8.77;2.93;;;;;;;;;;10475007;28;20120;-81
2023/02/08 20:49:04;;;;;;;13.23;3.93;;;;;;;;;;10470994;28;20059;-80
2023/02/08 20:54:10;;;;;;;9.53;4.43;;;;;;;;;;10477459;28;20036;-79
2023/02/08 20:59:16;;;;;;;3.80;2.80;;;;;;;;;;10468422;28;20081;-80
2023/02/08 21:04:22;;;;;;;8.30;2.93;;;;;;;;;;10460834;28;20037;-80
2023/02/08 21:09:26;;;;;;;7.23;2.67;;;;;;;;;;10441653;28;20049;-81
2023/02/08 21:14:29;;;;;;;;;;;;;;;;;;10445149;28;20068;-80
2023/02/08 21:19:32;;;;;;;9.33;2.73;;;;;;;;;;10446841;28;19925;-80
2023/02/08 21:24:36;;;;;;;8.67;2.60;;;;;;;;;;10449162;28;20040;-81
2023/02/08 21:29:39;;;;;;;3.13;1.73;;;;;;;;;;10443552;28;20092;-80
2023/02/08 21:34:42;;;;;;;10.87;2.57;;;;;;;;;;10444827;28;20128;-80
2023/02/08 21:39:46;;;;;;;8.00;4.20;;;;;;;;;;10443895;28;20052;-80
2023/02/08 21:44:49;;;;;;;7.68;3.45;;;;;;;;;;10440009;28;20367;-80
2023/02/08 21:55:13;;;;;;;3.97;1.47;;;;;;;;;;10443511;28;20052;-80
2023/02/08 22:00:16;;;;;;;11.65;4.22;;;;;;;;;;10447765;28;20051;-79
2023/02/08 22:05:38;;;;;;;9.60;2.97;;;;;;;;;;10447370;28;20131;-79
2023/02/08 22:10:42;;;;;;;3.83;1.63;;;;;;;;;;10441235;28;20092;-79
2023/02/08 22:16:01;;;;;;;3.47;1.93;;;;;;;;;;10446327;28;20489;-79
2023/02/08 22:21:04;;;;;;;8.77;3.43;;;;;;;;;;10443238;28;20052;-79
2023/02/08 22:26:09;;;;;;;3.73;2.10;;;;;;;;;;10443645;28;20048;-79
2023/02/08 22:31:13;;;;;;;1.17;1.07;;;;;;;;;;10437388;28;20510;-78
2023/02/08 22:36:16;;;;;;;6.90;2.67;;;;;;;;;;10436380;28;20045;-79
2023/02/08 22:41:22;;;;;;;2.60;1.43;;;;;;;;;;10441422;28;20043;-80
2023/02/08 22:46:25;;;;;;;7.17;1.50;;;;;;;;;;10442593;28;20040;-78
2023/02/08 22:51:27;;;;;;;4.83;2.63;;;;;;;;;;10434923;28;20172;-79
2023/02/08 22:56:32;;;;;;;6.00;1.87;;;;;;;;;;10447001;28;20044;-80
2023/02/08 23:01:34;;;;;;;1.48;1.02;;;;;;;;;;10445515;28;20122;-80
2023/02/08 23:06:37;;;;;;;2.00;1.00;;;;;;;;;;10443138;28;20053;-79
2023/02/08 23:11:41;;;;;;;6.93;1.70;;;;;;;;;;10442664;28;20041;-79
2023/02/08 23:16:44;;;;;;;1.20;0.65;;;;;;;;;;10433175;28;20122;-79
2023/02/08 23:21:47;;;;;;;4.80;2.07;;;;;;;;;;10441846;28;20131;-79
2023/02/08 23:26:51;;;;;;;4.60;1.83;;;;;;;;;;10444662;28;20079;-80
2023/02/08 23:31:54;;;;;;;2.28;0.93;;;;;;;;;;10439535;28;20064;-81
2023/02/08 23:36:57;;;;;;;4.03;1.93;;;;;;;;;;10436470;28;20045;-80
2023/02/08 23:42:01;;;;;;;2.87;1.63;;;;;;;;;;10436123;28;20064;-81
2023/02/08 23:47:03;;;;;;;4.43;1.85;;;;;;;;;;10435517;28;20140;-79
2023/02/08 23:52:06;;;;;;;3.23;1.47;;;;;;;;;;10439904;28;20041;-79
2023/02/08 23:57:10;;;;;;;4.50;2.23;;;;;;;;;;10441745;28;20041;-79
